sensor_id;sensor_type;location;lat;lon;timestamp;pressure;altitude;pressure_sealevel;temperature;humidity
59289;BME280;45056;47.602;9.886;2022-10-16T00:01:43;93004.34;;;15.75;65.32
59289;BME280;45056;47.602;9.886;2022-10-16T00:04:12;93001.63;;;15.75;65.53
59289;BME280;45056;47.602;9.886;2022-10-16T00:06:40;92998.88;;;15.75;65.45
59289;BME280;45056;47.602;9.886;2022-10-16T00:09:08;92998.09;;;15.74;65.32
59289;BME280;45056;47.602;9.886;2022-10-16T00:11:39;92998.88;;;15.75;65.36
59289;BME280;45056;47.602;9.886;2022-10-16T00:14:11;92994.13;;;15.75;65.35
59289;BME280;45056;47.602;9.886;2022-10-16T00:16:41;93002.34;;;15.75;65.21
59289;BME280;45056;47.602;9.886;2022-10-16T00:19:10;92998.88;;;15.75;65.05
59289;BME280;45056;47.602;9.886;2022-10-16T00:21:39;92997.38;;;15.73;64.72
59289;BME280;45056;47.602;9.886;2022-10-16T00:24:09;93000.09;;;15.73;64.38
59289;BME280;45056;47.602;9.886;2022-10-16T00:26:40;92989.13;;;15.73;64.42
59289;BME280;45056;47.602;9.886;2022-10-16T00:29:08;92998.09;;;15.74;64.59
59289;BME280;45056;47.602;9.886;2022-10-16T00:31:37;92997.38;;;15.73;64.36
59289;BME280;45056;47.602;9.886;2022-10-16T00:34:05;93009.06;;;15.74;64.34
59289;BME280;45056;47.602;9.886;2022-10-16T00:36:33;93005.09;;;15.75;64.21
59289;BME280;45056;47.602;9.886;2022-10-16T00:39:01;93005.88;;;15.76;64.14
59289;BME280;45056;47.602;9.886;2022-10-16T00:41:31;93000.38;;;15.76;64.21
59289;BME280;45056;47.602;9.886;2022-10-16T00:44:03;92994.91;;;15.76;63.94
59289;BME280;45056;47.602;9.886;2022-10-16T00:47:19;93000.38;;;15.76;63.83
59289;BME280;45056;47.602;9.886;2022-10-16T00:49:56;93001.16;;;15.76;63.90
59289;BME280;45056;47.602;9.886;2022-10-16T00:52:28;93006.91;;;15.78;63.82
59289;BME280;45056;47.602;9.886;2022-10-16T00:54:58;93010.41;;;15.79;63.67
59289;BME280;45056;47.602;9.886;2022-10-16T00:57:28;93003.22;;;15.81;63.45
59289;BME280;45056;47.602;9.886;2022-10-16T00:59:58;92994.50;;;15.83;63.59
59289;BME280;45056;47.602;9.886;2022-10-16T01:02:26;93008.50;;;15.85;63.34
59289;BME280;45056;47.602;9.886;2022-10-16T01:04:54;93000.56;;;15.87;63.48
59289;BME280;45056;47.602;9.886;2022-10-16T01:07:32;93005.13;;;15.90;63.40
59289;BME280;45056;47.602;9.886;2022-10-16T01:10:17;93005.44;;;15.92;63.30
59289;BME280;45056;47.602;9.886;2022-10-16T01:12:59;93002.69;;;15.92;63.36
59289;BME280;45056;47.602;9.886;2022-10-16T01:15:37;93007.41;;;15.92;63.19
59289;BME280;45056;47.602;9.886;2022-10-16T01:18:18;92996.91;;;15.90;63.58
59289;BME280;45056;47.602;9.886;2022-10-16T01:21:01;93002.88;;;15.89;63.40
59289;BME280;45056;47.602;9.886;2022-10-16T01:23:42;93006.34;;;15.89;63.36
59289;BME280;45056;47.602;9.886;2022-10-16T01:26:36;93006.34;;;15.89;63.30
59289;BME280;45056;47.602;9.886;2022-10-16T01:29:23;93010.59;;;15.90;63.48
59289;BME280;45056;47.602;9.886;2022-10-16T01:32:02;93012.16;;;15.91;63.34
59289;BME280;45056;47.602;9.886;2022-10-16T01:34:41;93015.91;;;15.94;63.10
59289;BME280;45056;47.602;9.886;2022-10-16T01:37:22;93002.47;;;15.96;63.07
59289;BME280;45056;47.602;9.886;2022-10-16T01:40:03;93003.53;;;15.98;62.74
59289;BME280;45056;47.602;9.886;2022-10-16T01:42:39;93006.06;;;16.02;62.75
59289;BME280;45056;47.602;9.886;2022-10-16T01:45:14;93004.81;;;16.03;62.32
59289;BME280;45056;47.602;9.886;2022-10-16T01:47:49;93014.09;;;16.06;62.16
59289;BME280;45056;47.602;9.886;2022-10-16T01:50:21;93006.16;;;16.08;61.88
59289;BME280;45056;47.602;9.886;2022-10-16T01:52:53;93010.41;;;16.09;61.56
59289;BME280;45056;47.602;9.886;2022-10-16T01:55:29;93000.94;;;16.10;61.06
59289;BME280;45056;47.602;9.886;2022-10-16T01:58:05;93000.00;;;16.13;60.80
59289;BME280;45056;47.602;9.886;2022-10-16T02:00:41;93001.78;;;16.16;60.63
59289;BME280;45056;47.602;9.886;2022-10-16T02:03:15;93009.56;;;16.18;60.69
59289;BME280;45056;47.602;9.886;2022-10-16T02:05:48;93005.09;;;16.20;60.56
59289;BME280;45056;47.602;9.886;2022-10-16T02:08:20;93010.84;;;16.22;60.31
59289;BME280;45056;47.602;9.886;2022-10-16T02:10:50;93012.38;;;16.23;60.42
59289;BME280;45056;47.602;9.886;2022-10-16T02:13:32;93021.66;;;16.26;60.58
59289;BME280;45056;47.602;9.886;2022-10-16T02:16:07;93012.94;;;16.27;60.29
59289;BME280;45056;47.602;9.886;2022-10-16T02:18:38;93017.19;;;16.28;60.36
59289;BME280;45056;47.602;9.886;2022-10-16T02:21:16;93018.72;;;16.29;60.46
59289;BME280;45056;47.602;9.886;2022-10-16T02:23:54;93014.72;;;16.30;60.37
59289;BME280;45056;47.602;9.886;2022-10-16T02:26:37;93014.72;;;16.30;60.28
59289;BME280;45056;47.602;9.886;2022-10-16T02:29:17;93012.00;;;16.30;60.38
59289;BME280;45056;47.602;9.886;2022-10-16T02:31:55;93018.72;;;16.29;60.32
59289;BME280;45056;47.602;9.886;2022-10-16T02:34:31;93020.69;;;16.29;60.35
59289;BME280;45056;47.602;9.886;2022-10-16T02:37:04;93016.44;;;16.28;60.56
59289;BME280;45056;47.602;9.886;2022-10-16T02:39:33;93023.66;;;16.25;60.62
59289;BME280;45056;47.602;9.886;2022-10-16T02:42:02;93020.63;;;16.23;60.77
59289;BME280;45056;47.602;9.886;2022-10-16T02:44:30;93017.28;;;16.19;60.73
59289;BME280;45056;47.602;9.886;2022-10-16T02:46:59;93020.25;;;16.15;61.07
59289;BME280;45056;47.602;9.886;2022-10-16T02:49:27;93021.66;;;16.11;61.21
59289;BME280;45056;47.602;9.886;2022-10-16T02:51:55;93023.09;;;16.06;61.54
59289;BME280;45056;47.602;9.886;2022-10-16T02:54:24;93032.25;;;16.03;61.90
59289;BME280;45056;47.602;9.886;2022-10-16T02:56:52;93037.69;;;15.97;62.21
59289;BME280;45056;47.602;9.886;2022-10-16T02:59:20;93038.63;;;15.94;62.27
59289;BME280;45056;47.602;9.886;2022-10-16T03:01:48;93037.75;;;15.88;62.62
59289;BME280;45056;47.602;9.886;2022-10-16T03:04:17;93020.44;;;15.82;62.83
59289;BME280;45056;47.602;9.886;2022-10-16T03:06:45;93025.53;;;15.74;63.17
59289;BME280;45056;47.602;9.886;2022-10-16T03:09:13;93023.47;;;15.69;63.10
59289;BME280;45056;47.602;9.886;2022-10-16T03:11:41;93016.66;;;15.64;63.63
59289;BME280;45056;47.602;9.886;2022-10-16T03:14:09;93020.63;;;15.63;63.67
59289;BME280;45056;47.602;9.886;2022-10-16T03:16:37;93026.75;;;15.58;63.81
59289;BME280;45056;47.602;9.886;2022-10-16T03:19:05;93032.91;;;15.53;64.06
59289;BME280;45056;47.602;9.886;2022-10-16T03:21:35;93022.88;;;15.50;64.28
59289;BME280;45056;47.602;9.886;2022-10-16T03:24:04;93015.88;;;15.49;64.39
59289;BME280;45056;47.602;9.886;2022-10-16T03:26:32;93011.34;;;15.46;64.34
59289;BME280;45056;47.602;9.886;2022-10-16T03:29:00;93001.31;;;15.42;64.56
59289;BME280;45056;47.602;9.886;2022-10-16T03:31:29;92996.50;;;15.37;64.50
59289;BME280;45056;47.602;9.886;2022-10-16T03:33:58;93001.13;;;15.31;64.96
59289;BME280;45056;47.602;9.886;2022-10-16T03:36:26;93004.50;;;15.26;64.99
59289;BME280;45056;47.602;9.886;2022-10-16T03:38:55;93020.22;;;15.25;65.22
59289;BME280;45056;47.602;9.886;2022-10-16T03:41:23;93037.41;;;15.26;65.00
59289;BME280;45056;47.602;9.886;2022-10-16T03:43:51;93028.72;;;15.27;65.11
59289;BME280;45056;47.602;9.886;2022-10-16T03:46:19;93030.22;;;15.28;65.03
59289;BME280;45056;47.602;9.886;2022-10-16T03:48:47;93020.03;;;15.29;65.01
59289;BME280;45056;47.602;9.886;2022-10-16T03:51:15;93030.22;;;15.28;65.03
59289;BME280;45056;47.602;9.886;2022-10-16T03:53:43;93028.25;;;15.29;65.10
59289;BME280;45056;47.602;9.886;2022-10-16T03:56:13;93029.00;;;15.29;65.01
59289;BME280;45056;47.602;9.886;2022-10-16T03:58:41;93019.28;;;15.28;65.21
59289;BME280;45056;47.602;9.886;2022-10-16T04:01:09;93021.25;;;15.28;65.09
59289;BME280;45056;47.602;9.886;2022-10-16T04:03:37;93012.44;;;15.24;65.19
59289;BME280;45056;47.602;9.886;2022-10-16T04:06:05;93020.59;;;15.18;65.26
59289;BME280;45056;47.602;9.886;2022-10-16T04:08:34;93014.69;;;15.10;65.31
59289;BME280;45056;47.602;9.886;2022-10-16T04:11:03;93017.81;;;15.03;65.52
59289;BME280;45056;47.602;9.886;2022-10-16T04:13:32;93020.25;;;15.01;65.84
59289;BME280;45056;47.602;9.886;2022-10-16T04:16:00;93014.50;;;14.99;66.34
59289;BME280;45056;47.602;9.886;2022-10-16T04:18:28;93018.47;;;14.98;66.33
59289;BME280;45056;47.602;9.886;2022-10-16T04:20:56;93029.41;;;14.98;66.40
59289;BME280;45056;47.602;9.886;2022-10-16T04:23:29;93014.19;;;14.97;66.26
59289;BME280;45056;47.602;9.886;2022-10-16T04:25:57;93027.41;;;14.98;66.27
59289;BME280;45056;47.602;9.886;2022-10-16T04:28:25;93042.63;;;14.99;66.28
59289;BME280;45056;47.602;9.886;2022-10-16T04:30:55;93041.88;;;14.99;66.22
59289;BME280;45056;47.602;9.886;2022-10-16T04:33:23;93044.31;;;14.97;66.35
59289;BME280;45056;47.602;9.886;2022-10-16T04:35:56;93056.50;;;14.96;66.37
59289;BME280;45056;47.602;9.886;2022-10-16T04:38:25;93058.94;;;14.94;66.53
59289;BME280;45056;47.602;9.886;2022-10-16T04:40:53;93057.91;;;14.91;66.72
59289;BME280;45056;47.602;9.886;2022-10-16T04:43:21;93068.59;;;14.89;66.66
59289;BME280;45056;47.602;9.886;2022-10-16T04:45:50;93061.59;;;14.88;66.90
59289;BME280;45056;47.602;9.886;2022-10-16T04:48:19;93058.06;;;14.88;66.67
59289;BME280;45056;47.602;9.886;2022-10-16T04:50:48;93049.13;;;14.87;66.94
59289;BME280;45056;47.602;9.886;2022-10-16T04:53:16;93056.56;;;14.86;66.92
59289;BME280;45056;47.602;9.886;2022-10-16T04:55:44;93057.34;;;14.87;66.99
59289;BME280;45056;47.602;9.886;2022-10-16T04:58:12;93050.34;;;14.86;66.97
59289;BME280;45056;47.602;9.886;2022-10-16T05:00:40;93050.78;;;14.84;66.88
59289;BME280;45056;47.602;9.886;2022-10-16T05:03:08;93060.25;;;14.83;66.90
59289;BME280;45056;47.602;9.886;2022-10-16T05:05:42;93058.16;;;14.78;66.96
59289;BME280;45056;47.602;9.886;2022-10-16T05:08:13;93064.56;;;14.75;66.94
59289;BME280;45056;47.602;9.886;2022-10-16T05:10:43;93067.28;;;14.75;67.17
59289;BME280;45056;47.602;9.886;2022-10-16T05:13:12;93074.00;;;14.74;67.15
59289;BME280;45056;47.602;9.886;2022-10-16T05:15:40;93066.72;;;14.71;67.26
59289;BME280;45056;47.602;9.886;2022-10-16T05:18:09;93069.13;;;14.69;67.30
59289;BME280;45056;47.602;9.886;2022-10-16T05:20:38;93073.53;;;14.66;67.45
59289;BME280;45056;47.602;9.886;2022-10-16T05:23:06;93075.50;;;14.66;67.55
59289;BME280;45056;47.602;9.886;2022-10-16T05:25:37;93072.03;;;14.65;67.28
59289;BME280;45056;47.602;9.886;2022-10-16T05:28:05;93067.28;;;14.66;67.30
59289;BME280;45056;47.602;9.886;2022-10-16T05:30:33;93072.03;;;14.65;67.47
59289;BME280;45056;47.602;9.886;2022-10-16T05:33:01;93065.19;;;14.61;67.43
59289;BME280;45056;47.602;9.886;2022-10-16T05:35:29;93083.63;;;14.60;67.51
59289;BME280;45056;47.602;9.886;2022-10-16T05:37:58;93082.84;;;14.60;67.62
59289;BME280;45056;47.602;9.886;2022-10-16T05:40:27;93084.84;;;14.59;67.62
59289;BME280;45056;47.602;9.886;2022-10-16T05:42:55;93088.31;;;14.60;67.71
59289;BME280;45056;47.602;9.886;2022-10-16T05:45:23;93095.31;;;14.61;67.53
59289;BME280;45056;47.602;9.886;2022-10-16T05:47:51;93096.84;;;14.62;67.44
59289;BME280;45056;47.602;9.886;2022-10-16T05:50:19;93097.59;;;14.62;67.54
59289;BME280;45056;47.602;9.886;2022-10-16T05:52:47;93111.59;;;14.64;67.64
59289;BME280;45056;47.602;9.886;2022-10-16T05:55:17;93106.13;;;14.64;67.85
59289;BME280;45056;47.602;9.886;2022-10-16T05:57:45;93103.81;;;14.63;67.72
59289;BME280;45056;47.602;9.886;2022-10-16T06:00:13;93104.59;;;14.63;67.86
59289;BME280;45056;47.602;9.886;2022-10-16T06:02:41;93106.84;;;14.65;67.67
59289;BME280;45056;47.602;9.886;2022-10-16T06:05:09;93097.13;;;14.64;67.76
59289;BME280;45056;47.602;9.886;2022-10-16T06:07:37;93098.19;;;14.66;67.84
59289;BME280;45056;47.602;9.886;2022-10-16T06:10:07;93097.41;;;14.66;67.62
59289;BME280;45056;47.602;9.886;2022-10-16T06:12:37;93106.41;;;14.66;67.76
59289;BME280;45056;47.602;9.886;2022-10-16T06:15:05;93107.91;;;14.67;67.71
59289;BME280;45056;47.602;9.886;2022-10-16T06:17:33;93121.16;;;14.69;67.81
59289;BME280;45056;47.602;9.886;2022-10-16T06:20:02;93121.47;;;14.71;67.70
59289;BME280;45056;47.602;9.886;2022-10-16T06:22:30;93112.78;;;14.73;67.61
59289;BME280;45056;47.602;9.886;2022-10-16T06:24:58;93114.88;;;14.78;66.85
59289;BME280;45056;47.602;9.886;2022-10-16T06:27:26;93127.34;;;14.88;66.36
59289;BME280;45056;47.602;9.886;2022-10-16T06:29:56;93116.03;;;14.95;65.67
59289;BME280;45056;47.602;9.886;2022-10-16T06:32:24;93128.44;;;15.06;65.24
59289;BME280;45056;47.602;9.886;2022-10-16T06:34:52;93130.06;;;15.12;64.57
59289;BME280;45056;47.602;9.886;2022-10-16T06:37:20;93128.97;;;15.19;64.43
59289;BME280;45056;47.602;9.886;2022-10-16T06:39:48;93126.81;;;15.23;64.11
59289;BME280;45056;47.602;9.886;2022-10-16T06:42:19;93131.66;;;15.28;64.19
59289;BME280;45056;47.602;9.886;2022-10-16T06:44:47;93132.22;;;15.33;64.12
59289;BME280;45056;47.602;9.886;2022-10-16T06:47:16;93131.00;;;15.34;64.15
59289;BME280;45056;47.602;9.886;2022-10-16T06:49:45;93136.31;;;15.37;64.13
59289;BME280;45056;47.602;9.886;2022-10-16T06:52:13;93137.06;;;15.38;63.74
59289;BME280;45056;47.602;9.886;2022-10-16T06:54:41;93137.06;;;15.38;63.78
59289;BME280;45056;47.602;9.886;2022-10-16T06:57:09;93144.81;;;15.39;63.88
59289;BME280;45056;47.602;9.886;2022-10-16T06:59:37;93150.31;;;15.39;63.95
59289;BME280;45056;47.602;9.886;2022-10-16T07:02:06;93154.00;;;15.36;64.49
59289;BME280;45056;47.602;9.886;2022-10-16T07:04:36;93151.91;;;15.31;64.56
59289;BME280;45056;47.602;9.886;2022-10-16T07:07:05;93158.78;;;15.26;64.87
59289;BME280;45056;47.602;9.886;2022-10-16T07:09:33;93164.69;;;15.25;65.19
59289;BME280;45056;47.602;9.886;2022-10-16T07:12:01;93169.59;;;15.21;65.50
59289;BME280;45056;47.602;9.886;2022-10-16T07:14:29;93168.56;;;15.18;65.68
59289;BME280;45056;47.602;9.886;2022-10-16T07:16:57;93178.47;;;15.15;65.78
59289;BME280;45056;47.602;9.886;2022-10-16T07:19:25;93176.50;;;15.16;65.93
59289;BME280;45056;47.602;9.886;2022-10-16T07:21:54;93183.00;;;15.19;65.89
59289;BME280;45056;47.602;9.886;2022-10-16T07:24:23;93177.66;;;15.24;66.00
59289;BME280;45056;47.602;9.886;2022-10-16T07:26:51;93172.59;;;15.32;66.09
59289;BME280;45056;47.602;9.886;2022-10-16T07:29:21;93178.31;;;15.43;65.83
59289;BME280;45056;47.602;9.886;2022-10-16T07:31:49;93175.03;;;15.54;65.59
59289;BME280;45056;47.602;9.886;2022-10-16T07:34:19;93180.72;;;15.66;65.04
59289;BME280;45056;47.602;9.886;2022-10-16T07:36:48;93178.97;;;15.78;64.74
59289;BME280;45056;47.602;9.886;2022-10-16T07:39:18;93188.66;;;15.88;64.79
59289;BME280;45056;47.602;9.886;2022-10-16T07:41:46;93189.84;;;15.96;64.28
59289;BME280;45056;47.602;9.886;2022-10-16T07:44:15;93181.22;;;16.04;64.50
59289;BME280;45056;47.602;9.886;2022-10-16T07:46:43;93189.09;;;16.11;64.42
59289;BME280;45056;47.602;9.886;2022-10-16T07:49:11;93192.69;;;16.17;63.96
59289;BME280;45056;47.602;9.886;2022-10-16T07:51:39;93195.34;;;16.26;63.79
59289;BME280;45056;47.602;9.886;2022-10-16T07:54:09;93208.03;;;16.39;63.72
59289;BME280;45056;47.602;9.886;2022-10-16T07:56:38;93203.00;;;16.52;62.89
59289;BME280;45056;47.602;9.886;2022-10-16T07:59:06;93199.97;;;16.65;62.08
59289;BME280;45056;47.602;9.886;2022-10-16T08:01:34;93208.41;;;16.77;60.95
59289;BME280;45056;47.602;9.886;2022-10-16T08:04:03;93213.34;;;16.87;60.84
59289;BME280;45056;47.602;9.886;2022-10-16T08:06:36;93222.22;;;16.97;61.02
59289;BME280;45056;47.602;9.886;2022-10-16T08:09:07;93214.09;;;17.03;61.77
59289;BME280;45056;47.602;9.886;2022-10-16T08:11:36;93227.94;;;17.09;62.46
59289;BME280;45056;47.602;9.886;2022-10-16T08:14:06;93230.00;;;17.14;62.41
59289;BME280;45056;47.602;9.886;2022-10-16T08:16:34;93229.03;;;17.17;62.40
59289;BME280;45056;47.602;9.886;2022-10-16T08:19:02;93241.84;;;17.20;62.63
59289;BME280;45056;47.602;9.886;2022-10-16T08:21:30;93234.13;;;17.24;62.89
59289;BME280;45056;47.602;9.886;2022-10-16T08:23:58;93239.16;;;17.26;62.85
59289;BME280;45056;47.602;9.886;2022-10-16T08:26:27;93233.66;;;17.26;62.77
59289;BME280;45056;47.602;9.886;2022-10-16T08:28:55;93236.41;;;17.26;62.93
59289;BME280;45056;47.602;9.886;2022-10-16T08:31:25;93232.44;;;17.27;62.66
59289;BME280;45056;47.602;9.886;2022-10-16T08:33:53;93234.50;;;17.32;61.78
59289;BME280;45056;47.602;9.886;2022-10-16T08:36:21;93234.09;;;17.39;60.84
59289;BME280;45056;47.602;9.886;2022-10-16T08:38:50;93247.44;;;17.47;59.87
59289;BME280;45056;47.602;9.886;2022-10-16T08:41:37;93253.13;;;17.58;58.85
59289;BME280;45056;47.602;9.886;2022-10-16T08:45:02;93261.50;;;17.69;58.33
59289;BME280;45056;47.602;9.886;2022-10-16T08:47:49;93257.69;;;17.82;58.06
59289;BME280;45056;47.602;9.886;2022-10-16T08:50:30;93260.47;;;17.87;57.57
59289;BME280;45056;47.602;9.886;2022-10-16T08:53:01;93255.06;;;17.93;57.42
59289;BME280;45056;47.602;9.886;2022-10-16T08:55:38;93262.16;;;18.00;56.97
59289;BME280;45056;47.602;9.886;2022-10-16T08:58:12;93264.97;;;18.06;56.39
59289;BME280;45056;47.602;9.886;2022-10-16T09:00:45;93262.56;;;18.13;56.17
59289;BME280;45056;47.602;9.886;2022-10-16T09:03:32;93262.66;;;18.19;56.02
59289;BME280;45056;47.602;9.886;2022-10-16T09:06:35;93258.44;;;18.24;54.97
59289;BME280;45056;47.602;9.886;2022-10-16T09:09:32;93263.75;;;18.27;54.57
59289;BME280;45056;47.602;9.886;2022-10-16T09:12:19;93272.06;;;18.33;54.25
59289;BME280;45056;47.602;9.886;2022-10-16T09:15:07;93274.13;;;18.38;53.96
59289;BME280;45056;47.602;9.886;2022-10-16T09:17:54;93267.16;;;18.43;53.83
59289;BME280;45056;47.602;9.886;2022-10-16T09:20:40;93274.72;;;18.48;53.72
59289;BME280;45056;47.602;9.886;2022-10-16T09:23:19;93279.81;;;18.55;53.73
59289;BME280;45056;47.602;9.886;2022-10-16T09:25:53;93277.38;;;18.63;54.25
59289;BME280;45056;47.602;9.886;2022-10-16T09:28:23;93277.69;;;18.71;55.20
59289;BME280;45056;47.602;9.886;2022-10-16T09:30:52;93284.31;;;18.79;55.37
59289;BME280;45056;47.602;9.886;2022-10-16T09:33:24;93283.09;;;18.86;54.74
59289;BME280;45056;47.602;9.886;2022-10-16T09:35:59;93292.94;;;18.93;54.38
59289;BME280;45056;47.602;9.886;2022-10-16T09:38:29;93298.81;;;19.00;53.99
59289;BME280;45056;47.602;9.886;2022-10-16T09:41:01;93300.63;;;19.09;53.13
59289;BME280;45056;47.602;9.886;2022-10-16T09:43:49;93299.22;;;19.20;52.50
59289;BME280;45056;47.602;9.886;2022-10-16T09:46:26;93298.75;;;19.27;51.90
59289;BME280;45056;47.602;9.886;2022-10-16T09:48:57;93301.06;;;19.34;51.16
59289;BME280;45056;47.602;9.886;2022-10-16T09:51:30;93302.41;;;19.44;50.83
59289;BME280;45056;47.602;9.886;2022-10-16T09:54:02;93297.94;;;19.53;50.52
59289;BME280;45056;47.602;9.886;2022-10-16T09:56:43;93299.00;;;19.61;49.81
59289;BME280;45056;47.602;9.886;2022-10-16T09:59:14;93299.31;;;19.69;49.45
59289;BME280;45056;47.602;9.886;2022-10-16T10:01:46;93296.34;;;19.78;49.31
59289;BME280;45056;47.602;9.886;2022-10-16T10:04:17;93296.91;;;19.88;49.53
59289;BME280;45056;47.602;9.886;2022-10-16T10:06:51;93296.75;;;19.97;48.30
59289;BME280;45056;47.602;9.886;2022-10-16T10:09:23;93301.53;;;20.08;47.78
59289;BME280;45056;47.602;9.886;2022-10-16T10:11:54;93297.34;;;20.18;49.55
59289;BME280;45056;47.602;9.886;2022-10-16T10:14:31;93303.66;;;20.30;53.46
59289;BME280;45056;47.602;9.886;2022-10-16T10:17:13;93299.44;;;20.41;54.84
59289;BME280;45056;47.602;9.886;2022-10-16T10:19:49;93305.97;;;20.49;54.79
59289;BME280;45056;47.602;9.886;2022-10-16T10:22:25;93301.47;;;20.57;54.26
59289;BME280;45056;47.602;9.886;2022-10-16T10:25:00;93296.22;;;20.65;53.04
59289;BME280;45056;47.602;9.886;2022-10-16T10:27:53;93298.53;;;20.78;51.94
59289;BME280;45056;47.602;9.886;2022-10-16T10:30:40;93296.06;;;20.92;48.22
59289;BME280;45056;47.602;9.886;2022-10-16T10:33:28;93296.81;;;21.09;49.27
59289;BME280;45056;47.602;9.886;2022-10-16T10:39:02;93304.13;;;21.46;45.44
59289;BME280;45056;47.602;9.886;2022-10-16T10:42:07;93299.81;;;21.62;43.67
59289;BME280;45056;47.602;9.886;2022-10-16T10:48:10;93305.59;;;21.93;44.47
59289;BME280;45056;47.602;9.886;2022-10-16T10:50:54;93303.03;;;22.07;43.38
59289;BME280;45056;47.602;9.886;2022-10-16T10:53:38;93307.31;;;22.19;41.90
59289;BME280;45056;47.602;9.886;2022-10-16T10:56:26;93301.22;;;22.32;40.66
59289;BME280;45056;47.602;9.886;2022-10-16T10:59:25;93302.94;;;22.46;40.28
59289;BME280;45056;47.602;9.886;2022-10-16T11:02:12;93294.78;;;22.60;39.14
59289;BME280;45056;47.602;9.886;2022-10-16T11:08:00;93298.44;;;22.85;36.65
59289;BME280;45056;47.602;9.886;2022-10-16T11:10:42;93286.78;;;22.98;36.42
59289;BME280;45056;47.602;9.886;2022-10-16T11:13:24;93286.69;;;23.10;36.92
59289;BME280;45056;47.602;9.886;2022-10-16T11:16:05;93293.94;;;23.18;36.54
59289;BME280;45056;47.602;9.886;2022-10-16T11:18:50;93295.44;;;23.25;36.50
59289;BME280;45056;47.602;9.886;2022-10-16T11:21:24;93287.28;;;23.33;36.12
59289;BME280;45056;47.602;9.886;2022-10-16T11:24:01;93288.00;;;23.39;35.58
59289;BME280;45056;47.602;9.886;2022-10-16T11:26:43;93289.44;;;23.46;35.35
59289;BME280;45056;47.602;9.886;2022-10-16T11:29:22;93281.09;;;23.52;35.11
59289;BME280;45056;47.602;9.886;2022-10-16T11:32:01;93282.00;;;23.60;34.83
59289;BME280;45056;47.602;9.886;2022-10-16T11:34:47;93274.38;;;23.66;35.08
59289;BME280;45056;47.602;9.886;2022-10-16T11:37:23;93283.44;;;23.72;34.99
59289;BME280;45056;47.602;9.886;2022-10-16T11:40:11;93281.34;;;23.78;35.04
59289;BME280;45056;47.602;9.886;2022-10-16T11:42:55;93279.25;;;23.85;34.44
59289;BME280;45056;47.602;9.886;2022-10-16T11:45:39;93284.75;;;23.90;34.48
59289;BME280;45056;47.602;9.886;2022-10-16T11:48:20;93274.84;;;23.95;34.66
59289;BME280;45056;47.602;9.886;2022-10-16T11:50:58;93280.38;;;24.01;34.41
59289;BME280;45056;47.602;9.886;2022-10-16T11:53:42;93268.97;;;24.04;34.56
59289;BME280;45056;47.602;9.886;2022-10-16T11:56:20;93270.41;;;24.11;34.32
59289;BME280;45056;47.602;9.886;2022-10-16T11:58:56;93270.34;;;24.17;34.49
59289;BME280;45056;47.602;9.886;2022-10-16T12:01:40;93269.00;;;24.24;34.60
59289;BME280;45056;47.602;9.886;2022-10-16T12:04:21;93262.09;;;24.30;34.08
59289;BME280;45056;47.602;9.886;2022-10-16T12:06:59;93261.50;;;24.38;33.48
59289;BME280;45056;47.602;9.886;2022-10-16T12:09:37;93258.88;;;24.45;33.31
59289;BME280;45056;47.602;9.886;2022-10-16T12:12:25;93261.59;;;24.51;33.14
59289;BME280;45056;47.602;9.886;2022-10-16T12:15:15;93255.41;;;24.58;33.67
59289;BME280;45056;47.602;9.886;2022-10-16T12:17:48;93260.63;;;24.68;33.96
59289;BME280;45056;47.602;9.886;2022-10-16T12:20:26;93261.75;;;24.78;34.34
59289;BME280;45056;47.602;9.886;2022-10-16T12:23:00;93256.34;;;24.86;33.74
59289;BME280;45056;47.602;9.886;2022-10-16T12:25:32;93255.94;;;24.95;33.05
59289;BME280;45056;47.602;9.886;2022-10-16T12:28:04;93260.59;;;25.06;33.21
59289;BME280;45056;47.602;9.886;2022-10-16T12:30:35;93260.19;;;25.15;32.53
59289;BME280;45056;47.602;9.886;2022-10-16T12:33:20;93261.63;;;25.22;32.86
59289;BME280;45056;47.602;9.886;2022-10-16T12:35:51;93247.84;;;25.30;33.13
59289;BME280;45056;47.602;9.886;2022-10-16T12:38:25;93256.50;;;25.40;34.54
59289;BME280;45056;47.602;9.886;2022-10-16T12:40:59;93251.31;;;25.49;33.81
59289;BME280;45056;47.602;9.886;2022-10-16T12:43:37;93250.16;;;25.58;34.26
59289;BME280;45056;47.602;9.886;2022-10-16T12:46:37;93244.59;;;25.72;35.09
59289;BME280;45056;47.602;9.886;2022-10-16T12:49:30;93249.22;;;25.83;35.06
59289;BME280;45056;47.602;9.886;2022-10-16T12:51:59;93246.03;;;25.92;35.47
59289;BME280;45056;47.602;9.886;2022-10-16T12:54:29;93245.59;;;26.01;35.24
59289;BME280;45056;47.602;9.886;2022-10-16T12:57:16;93250.72;;;26.11;35.82
59289;BME280;45056;47.602;9.886;2022-10-16T13:00:04;93246.34;;;26.15;34.54
59289;BME280;45056;47.602;9.886;2022-10-16T13:06:13;93238.22;;;26.17;34.95
59289;BME280;45056;47.602;9.886;2022-10-16T13:09:22;93233.38;;;26.18;33.98
59289;BME280;45056;47.602;9.886;2022-10-16T13:12:23;93244.84;;;26.14;33.93
59289;BME280;45056;47.602;9.886;2022-10-16T13:15:25;93245.38;;;26.13;34.26
59289;BME280;45056;47.602;9.886;2022-10-16T13:18:12;93241.06;;;26.12;34.43
59289;BME280;45056;47.602;9.886;2022-10-16T13:23:57;93238.41;;;26.06;33.56
59289;BME280;45056;47.602;9.886;2022-10-16T13:26:43;93245.25;;;26.05;33.87
59289;BME280;45056;47.602;9.886;2022-10-16T13:29:18;93238.50;;;26.00;33.55
59289;BME280;45056;47.602;9.886;2022-10-16T13:31:48;93243.88;;;25.98;33.82
59289;BME280;45056;47.602;9.886;2022-10-16T13:34:20;93236.81;;;25.97;34.24
59289;BME280;45056;47.602;9.886;2022-10-16T13:36:52;93238.31;;;25.98;34.07
59289;BME280;45056;47.602;9.886;2022-10-16T13:39:23;93242.38;;;25.97;34.01
59289;BME280;45056;47.602;9.886;2022-10-16T13:42:05;93246.25;;;25.94;33.99
59289;BME280;45056;47.602;9.886;2022-10-16T13:44:42;93237.44;;;25.90;34.20
59289;BME280;45056;47.602;9.886;2022-10-16T13:47:18;93238.28;;;25.85;33.90
59289;BME280;45056;47.602;9.886;2022-10-16T13:49:59;93250.06;;;25.77;33.68
59289;BME280;45056;47.602;9.886;2022-10-16T13:52:30;93239.56;;;25.70;34.37